TimeMST,TemperatureF,Dew PointF,Humidity,Sea Level PressureIn,VisibilityMPH,Wind Direction,Wind SpeedMPH,Gust SpeedMPH,PrecipitationIn,Events,Conditions,WindDirDegrees,DateUTC
12:53 AM,21.9,17.1,82,30.20,10.0,Calm,Calm,-,N/A,,Clear,0,2012-11-15 07:53:00
1:53 AM,21.0,16.0,81,30.19,10.0,Calm,Calm,-,N/A,,Clear,0,2012-11-15 08:53:00
2:53 AM,21.0,16.0,81,30.19,10.0,Calm,Calm,-,N/A,,Clear,0,2012-11-15 09:53:00
3:53 AM,19.9,16.0,85,30.20,10.0,Calm,Calm,-,N/A,,Clear,0,2012-11-15 10:53:00
4:53 AM,19.0,14.0,81,30.23,10.0,Calm,Calm,-,N/A,,Clear,0,2012-11-15 11:53:00
5:53 AM,17.1,12.9,84,30.29,10.0,Calm,Calm,-,N/A,,Clear,0,2012-11-15 12:53:00
6:53 AM,17.1,12.9,84,30.31,10.0,Calm,Calm,-,N/A,,Clear,0,2012-11-15 13:53:00
7:53 AM,21.0,16.0,81,30.35,10.0,Calm,Calm,-,N/A,,Clear,0,2012-11-15 14:53:00
8:53 AM,30.9,18.0,59,30.32,10.0,Calm,Calm,-,N/A,,Clear,0,2012-11-15 15:53:00
9:53 AM,39.9,17.1,40,30.32,10.0,Calm,Calm,-,N/A,,Clear,0,2012-11-15 16:53:00
10:53 AM,45.0,16.0,31,30.30,10.0,Calm,Calm,-,N/A,,Clear,0,2012-11-15 17:53:00
11:53 AM,50.0,17.1,27,30.26,10.0,Calm,Calm,-,N/A,,Clear,0,2012-11-15 18:53:00
12:53 PM,54.0,14.0,21,30.22,10.0,Variable,3.5,-,N/A,,Clear,0,2012-11-15 19:53:00
1:53 PM,55.0,9.0,16,30.23,10.0,SE,5.8,-,N/A,,Clear,130,2012-11-15 20:53:00
2:53 PM,55.0,8.1,15,30.22,10.0,East,6.9,-,N/A,,Clear,90,2012-11-15 21:53:00
3:53 PM,51.1,10.0,19,30.24,10.0,East,3.5,-,N/A,,Clear,100,2012-11-15 22:53:00
4:53 PM,46.9,15.1,28,30.26,10.0,ESE,8.1,-,N/A,,Clear,110,2012-11-15 23:53:00
5:53 PM,45.0,14.0,29,30.29,10.0,East,8.1,-,N/A,,Clear,100,2012-11-16 00:53:00
6:53 PM,41.0,15.1,35,30.31,10.0,Calm,Calm,-,N/A,,Clear,0,2012-11-16 01:53:00
7:53 PM,35.1,19.9,54,30.32,10.0,Calm,Calm,-,N/A,,Clear,0,2012-11-16 02:53:00
8:53 PM,32.0,19.9,61,30.28,10.0,Calm,Calm,-,N/A,,Clear,0,2012-11-16 03:53:00
9:53 PM,30.9,19.9,64,30.27,10.0,Calm,Calm,-,N/A,,Clear,0,2012-11-16 04:53:00
10:53 PM,33.1,21.0,61,30.23,10.0,NE,4.6,-,N/A,,Clear,50,2012-11-16 05:53:00
11:53 PM,30.9,23.0,72,30.22,10.0,Calm,Calm,-,N/A,,Clear,0,2012-11-16 06:53:00